AFL769 URMM-UUEE
Flight info
| Callsign | AFL769 |
|---|---|
| Flight time | 2h 55m |
| Altitude | 35000 |
| Route | URILU5L URILU R227 BEMES DCT VULFI DCT TUVGI/K0848F340 DCT EVZUN DCT ZIZAR DCT VAZLU DCT UZZID DCT NOKLI/K0850F350 N72 WGD G481 OBABI T619 LUGIL/K0845F360 T619 UMRAL/K0845F350 P163 LADIM/K0843F360 P163 GOLRI L736 OLOPI OLOPI3F |
| Aircraft | A320/M-SDE3FGHIRWY/LB1 |
Departure
| Time | 2026-05-04 06:07 |
|---|---|
| Airport | Mineralnye Vody Airport (URMM) |
Arrival
| Time | 2026-05-04 09:03 |
|---|---|
| Airport | Sheremetyevo International Airport (UUEE) |
| Time | Latitude | Longitude | Altitude | Speed | Heading |
|---|---|---|---|---|---|
| 2026-05-04 05:18 | 44.21714 | 43.09070 | 1052 ft | 0 kts | 212° |
| 2026-05-04 05:55 | 44.21721 | 43.09077 | 1051 ft | 4 kts | 211° |
| 2026-05-04 05:55 | 44.21745 | 43.09095 | 1051 ft | 4 kts | 205° |
| 2026-05-04 05:55 | 44.21769 | 43.09109 | 1051 ft | 4 kts | 194° |
| 2026-05-04 05:55 | 44.21794 | 43.09112 | 1051 ft | 4 kts | 154° |
| 2026-05-04 05:56 | 44.21805 | 43.09100 | 1051 ft | 1 kts | 122° |
| 2026-05-04 05:56 | 44.21806 | 43.09098 | 1051 ft | 0 kts | 122° |
| 2026-05-04 06:00 | 44.21803 | 43.09104 | 1051 ft | 4 kts | 122° |
| 2026-05-04 06:00 | 44.21777 | 43.09181 | 1051 ft | 10 kts | 103° |
| 2026-05-04 06:00 | 44.21753 | 43.09179 | 1051 ft | 2 kts | 251° |
| 2026-05-04 06:01 | 44.21776 | 43.09136 | 1051 ft | 11 kts | 320° |
| 2026-05-04 06:01 | 44.21852 | 43.09062 | 1051 ft | 12 kts | 3° |
| 2026-05-04 06:03 | 44.22592 | 43.08493 | 1053 ft | 19 kts | 302° |
| 2026-05-04 06:03 | 44.22671 | 43.08318 | 1050 ft | 25 kts | 302° |
| 2026-05-04 06:05 | 44.23546 | 43.06392 | 1050 ft | 29 kts | 302° |
| 2026-05-04 06:05 | 44.23592 | 43.06297 | 1051 ft | 0 kts | 123° |
| 2026-05-04 06:06 | 44.23563 | 43.06360 | 1051 ft | 32 kts | 123° |
| 2026-05-04 06:06 | 44.23324 | 43.06890 | 1047 ft | 94 kts | 122° |
| 2026-05-04 06:07 | 44.22881 | 43.07866 | 1050 ft | 142 kts | 122° |
| 2026-05-04 06:07 | 44.22285 | 43.09182 | 1204 ft | 169 kts | 122° |
| 2026-05-04 06:07 | 44.21655 | 43.10522 | 1913 ft | 164 kts | 122° |
| 2026-05-04 06:07 | 44.21027 | 43.11846 | 2612 ft | 166 kts | 120° |
| 2026-05-04 06:08 | 44.20372 | 43.13292 | 2863 ft | 186 kts | 121° |
| 2026-05-04 06:08 | 44.19679 | 43.14930 | 3145 ft | 206 kts | 120° |
| 2026-05-04 06:08 | 44.18945 | 43.16702 | 3642 ft | 219 kts | 120° |
| 2026-05-04 06:08 | 44.18102 | 43.18600 | 4026 ft | 239 kts | 122° |
| 2026-05-04 06:09 | 44.17189 | 43.20569 | 4764 ft | 244 kts | 122° |
| 2026-05-04 06:09 | 44.16257 | 43.22564 | 5562 ft | 247 kts | 122° |
| 2026-05-04 06:11 | 44.12774 | 43.39186 | 10103 ft | 301 kts | 83° |
| 2026-05-04 06:11 | 44.13156 | 43.42169 | 10266 ft | 324 kts | 83° |
| 2026-05-04 06:13 | 44.16311 | 43.67293 | 12829 ft | 400 kts | 82° |
| 2026-05-04 06:14 | 44.14705 | 43.89226 | 15255 ft | 413 kts | 101° |
| 2026-05-04 06:14 | 44.14260 | 43.93189 | 15789 ft | 415 kts | 101° |
| 2026-05-04 06:15 | 44.13810 | 43.97172 | 16314 ft | 418 kts | 101° |
| 2026-05-04 06:15 | 44.13355 | 44.01185 | 16838 ft | 421 kts | 101° |
| 2026-05-04 06:15 | 44.12891 | 44.05217 | 17344 ft | 423 kts | 101° |
| 2026-05-04 06:15 | 44.12419 | 44.09271 | 17836 ft | 426 kts | 102° |
| 2026-05-04 06:16 | 44.11942 | 44.13347 | 18306 ft | 428 kts | 102° |
| 2026-05-04 06:16 | 44.11458 | 44.17449 | 18718 ft | 430 kts | 102° |
| 2026-05-04 06:16 | 44.10971 | 44.21562 | 19141 ft | 432 kts | 102° |
| 2026-05-04 06:16 | 44.10487 | 44.25690 | 19557 ft | 434 kts | 102° |
| 2026-05-04 06:17 | 44.10002 | 44.29841 | 19969 ft | 435 kts | 102° |
| 2026-05-04 06:17 | 44.09516 | 44.34002 | 20374 ft | 437 kts | 102° |
| 2026-05-04 06:17 | 44.09026 | 44.38177 | 20763 ft | 438 kts | 102° |
| 2026-05-04 06:17 | 44.08532 | 44.42362 | 21142 ft | 439 kts | 102° |
| 2026-05-04 06:18 | 44.08034 | 44.46563 | 21514 ft | 441 kts | 102° |
| 2026-05-04 06:18 | 44.07534 | 44.50775 | 21869 ft | 442 kts | 102° |
| 2026-05-04 06:18 | 44.07030 | 44.55003 | 22205 ft | 444 kts | 102° |
| 2026-05-04 06:20 | 44.03873 | 44.85016 | 24271 ft | 454 kts | 101° |
| 2026-05-04 06:20 | 44.03421 | 44.89365 | 24508 ft | 456 kts | 101° |
| 2026-05-04 06:21 | 44.01546 | 45.06877 | 25418 ft | 460 kts | 101° |
| 2026-05-04 06:21 | 44.01075 | 45.11273 | 25608 ft | 461 kts | 101° |
| 2026-05-04 06:22 | 44.00599 | 45.15687 | 25812 ft | 463 kts | 101° |
| 2026-05-04 06:22 | 44.00120 | 45.20111 | 26012 ft | 464 kts | 101° |
| 2026-05-04 06:25 | 43.93702 | 45.77146 | 29302 ft | 456 kts | 102° |
| 2026-05-04 06:25 | 43.93199 | 45.81487 | 29576 ft | 455 kts | 102° |
| 2026-05-04 06:26 | 43.92695 | 45.85817 | 29862 ft | 454 kts | 102° |
| 2026-05-04 06:26 | 43.92418 | 45.90191 | 30112 ft | 457 kts | 93° |
| 2026-05-04 06:26 | 43.92614 | 45.94608 | 30338 ft | 459 kts | 87° |
| 2026-05-04 06:26 | 43.92944 | 45.99007 | 30563 ft | 458 kts | 87° |
| 2026-05-04 06:27 | 43.94224 | 46.16516 | 31411 ft | 457 kts | 88° |
| 2026-05-04 06:28 | 43.94539 | 46.20900 | 31632 ft | 456 kts | 88° |
| 2026-05-04 06:28 | 43.94851 | 46.25279 | 31850 ft | 456 kts | 88° |
| 2026-05-04 06:28 | 43.95161 | 46.29653 | 32071 ft | 455 kts | 88° |
| 2026-05-04 06:28 | 43.95471 | 46.34032 | 32291 ft | 455 kts | 88° |
| 2026-05-04 06:29 | 43.95776 | 46.38391 | 32509 ft | 454 kts | 88° |
| 2026-05-04 06:29 | 43.96078 | 46.42750 | 32724 ft | 454 kts | 89° |
| 2026-05-04 06:29 | 43.96376 | 46.47112 | 32936 ft | 453 kts | 89° |
| 2026-05-04 06:29 | 43.96669 | 46.51412 | 33147 ft | 453 kts | 89° |
| 2026-05-04 06:30 | 43.96966 | 46.55760 | 33339 ft | 453 kts | 89° |
| 2026-05-04 06:30 | 43.97263 | 46.60108 | 33546 ft | 452 kts | 89° |
| 2026-05-04 06:30 | 43.97560 | 46.64455 | 33743 ft | 452 kts | 89° |
| 2026-05-04 06:30 | 43.97852 | 46.68793 | 33938 ft | 452 kts | 89° |
| 2026-05-04 06:31 | 43.98142 | 46.73129 | 34108 ft | 452 kts | 89° |
| 2026-05-04 06:31 | 43.98431 | 46.77481 | 34265 ft | 452 kts | 89° |
| 2026-05-04 06:31 | 43.98718 | 46.81827 | 34418 ft | 453 kts | 89° |
| 2026-05-04 06:31 | 43.99001 | 46.86184 | 34566 ft | 453 kts | 89° |
| 2026-05-04 06:32 | 43.99283 | 46.90543 | 34712 ft | 454 kts | 89° |
| 2026-05-04 06:33 | 44.01261 | 47.21382 | 34920 ft | 460 kts | 89° |
| 2026-05-04 06:34 | 44.01805 | 47.30178 | 34924 ft | 460 kts | 89° |
| 2026-05-04 06:34 | 44.02345 | 47.39041 | 34927 ft | 461 kts | 89° |
| 2026-05-04 06:36 | 44.04462 | 47.74672 | 34927 ft | 464 kts | 88° |
| 2026-05-04 06:37 | 44.04980 | 47.83611 | 34932 ft | 464 kts | 88° |
| 2026-05-04 06:37 | 44.05493 | 47.92562 | 34912 ft | 466 kts | 88° |
| 2026-05-04 06:38 | 44.05996 | 48.01568 | 34915 ft | 468 kts | 88° |
| 2026-05-04 06:40 | 44.07926 | 48.37585 | 34910 ft | 469 kts | 88° |
| 2026-05-04 06:40 | 44.08408 | 48.46646 | 34913 ft | 470 kts | 88° |
| 2026-05-04 06:41 | 44.08870 | 48.55725 | 34896 ft | 471 kts | 88° |
| 2026-05-04 06:41 | 44.09330 | 48.64803 | 34897 ft | 471 kts | 88° |
| 2026-05-04 06:42 | 44.09786 | 48.73886 | 34899 ft | 470 kts | 88° |
| 2026-05-04 06:44 | 44.20469 | 49.03984 | 34892 ft | 469 kts | 12° |
| 2026-05-04 06:44 | 44.23676 | 49.04645 | 34892 ft | 464 kts | 358° |
| 2026-05-04 06:44 | 44.26870 | 49.04231 | 34892 ft | 459 kts | 344° |
| 2026-05-04 06:45 | 44.32813 | 49.01122 | 34848 ft | 457 kts | 334° |
| 2026-05-04 06:45 | 44.35749 | 48.99409 | 34725 ft | 457 kts | 334° |
| 2026-05-04 06:45 | 44.38687 | 48.97692 | 34605 ft | 458 kts | 334° |
| 2026-05-04 06:46 | 44.41632 | 48.95976 | 34485 ft | 458 kts | 335° |
| 2026-05-04 06:46 | 44.44535 | 48.94282 | 34366 ft | 458 kts | 335° |
| 2026-05-04 06:46 | 44.47480 | 48.92566 | 34249 ft | 459 kts | 335° |
| 2026-05-04 06:46 | 44.50428 | 48.90849 | 34131 ft | 459 kts | 335° |
| 2026-05-04 06:48 | 44.71085 | 48.78739 | 33955 ft | 459 kts | 335° |
| 2026-05-04 06:48 | 44.74026 | 48.77004 | 33940 ft | 459 kts | 335° |
| 2026-05-04 06:50 | 44.97543 | 48.63082 | 33948 ft | 460 kts | 334° |
| 2026-05-04 06:51 | 45.03442 | 48.59576 | 33939 ft | 460 kts | 334° |
| 2026-05-04 06:51 | 45.09337 | 48.56062 | 33937 ft | 460 kts | 334° |
| 2026-05-04 06:52 | 45.15229 | 48.52530 | 33943 ft | 460 kts | 334° |
| 2026-05-04 06:52 | 45.21120 | 48.48987 | 33945 ft | 460 kts | 334° |
| 2026-05-04 06:53 | 45.26974 | 48.45464 | 33947 ft | 460 kts | 334° |
| 2026-05-04 06:53 | 45.32872 | 48.41918 | 33962 ft | 460 kts | 334° |
| 2026-05-04 06:54 | 45.38772 | 48.38366 | 33956 ft | 460 kts | 334° |
| 2026-05-04 06:54 | 45.44664 | 48.34804 | 33955 ft | 460 kts | 334° |
| 2026-05-04 06:55 | 45.50555 | 48.31220 | 33962 ft | 460 kts | 334° |
| 2026-05-04 06:55 | 45.56443 | 48.27644 | 33982 ft | 459 kts | 333° |
| 2026-05-04 06:57 | 45.79861 | 48.13329 | 33983 ft | 458 kts | 333° |
| 2026-05-04 06:58 | 45.85717 | 48.09732 | 33979 ft | 458 kts | 333° |
| 2026-05-04 06:58 | 45.91579 | 48.06128 | 33981 ft | 458 kts | 333° |
| 2026-05-04 06:59 | 45.97437 | 48.02510 | 33999 ft | 458 kts | 333° |
| 2026-05-04 06:59 | 46.03273 | 47.98868 | 34010 ft | 455 kts | 330° |
| 2026-05-04 07:01 | 46.17298 | 47.75789 | 33975 ft | 443 kts | 300° |
| 2026-05-04 07:01 | 46.18980 | 47.72065 | 33973 ft | 443 kts | 300° |
| 2026-05-04 07:02 | 46.22341 | 47.64598 | 33972 ft | 443 kts | 300° |
| 2026-05-04 07:02 | 46.25675 | 47.57162 | 33990 ft | 443 kts | 300° |
| 2026-05-04 07:03 | 46.29019 | 47.49684 | 33993 ft | 443 kts | 300° |
| 2026-05-04 07:03 | 46.32359 | 47.42197 | 33993 ft | 443 kts | 300° |
| 2026-05-04 07:04 | 46.35698 | 47.34710 | 33996 ft | 442 kts | 300° |
| 2026-05-04 07:04 | 46.39024 | 47.27219 | 34009 ft | 442 kts | 300° |
| 2026-05-04 07:05 | 46.42346 | 47.19734 | 34012 ft | 441 kts | 300° |
| 2026-05-04 07:05 | 46.45655 | 47.12244 | 34008 ft | 441 kts | 299° |
| 2026-05-04 07:06 | 46.50617 | 47.00975 | 33994 ft | 442 kts | 299° |
| 2026-05-04 07:07 | 46.53919 | 46.93443 | 34014 ft | 442 kts | 299° |
| 2026-05-04 07:09 | 46.67048 | 46.63293 | 34015 ft | 442 kts | 298° |
| 2026-05-04 07:09 | 46.70326 | 46.55721 | 34013 ft | 442 kts | 298° |
| 2026-05-04 07:10 | 46.73595 | 46.48146 | 34012 ft | 442 kts | 298° |
| 2026-05-04 07:12 | 46.86620 | 46.17767 | 34037 ft | 441 kts | 298° |
| 2026-05-04 07:12 | 46.89871 | 46.10171 | 34032 ft | 442 kts | 301° |
| 2026-05-04 07:13 | 46.93275 | 46.04555 | 34047 ft | 449 kts | 316° |
| 2026-05-04 07:13 | 46.96690 | 46.01086 | 34045 ft | 455 kts | 328° |
| 2026-05-04 07:13 | 46.99539 | 45.99039 | 34049 ft | 457 kts | 330° |
| 2026-05-04 07:14 | 47.12903 | 45.89722 | 34066 ft | 455 kts | 330° |
| 2026-05-04 07:15 | 47.18603 | 45.85726 | 34076 ft | 452 kts | 330° |
| 2026-05-04 07:15 | 47.24266 | 45.81734 | 34064 ft | 451 kts | 330° |
| 2026-05-04 07:16 | 47.29918 | 45.77739 | 34066 ft | 450 kts | 330° |
| 2026-05-04 07:16 | 47.35557 | 45.73748 | 34059 ft | 449 kts | 330° |
| 2026-05-04 07:17 | 47.41159 | 45.69773 | 34065 ft | 449 kts | 329° |
| 2026-05-04 07:17 | 47.46791 | 45.65772 | 34058 ft | 449 kts | 330° |
| 2026-05-04 07:18 | 47.52417 | 45.61763 | 34058 ft | 449 kts | 329° |
| 2026-05-04 07:18 | 47.58043 | 45.57740 | 34082 ft | 448 kts | 329° |
| 2026-05-04 07:19 | 47.63644 | 45.53734 | 34081 ft | 446 kts | 329° |
| 2026-05-04 07:19 | 47.69190 | 45.49753 | 34080 ft | 445 kts | 329° |
| 2026-05-04 07:20 | 47.74760 | 45.45738 | 34080 ft | 444 kts | 329° |
| 2026-05-04 07:20 | 47.80147 | 45.41360 | 34093 ft | 437 kts | 319° |
| 2026-05-04 07:22 | 47.98022 | 45.17450 | 34095 ft | 431 kts | 313° |
| 2026-05-04 07:23 | 48.02447 | 45.11509 | 34108 ft | 432 kts | 317° |
| 2026-05-04 07:23 | 48.04910 | 45.08921 | 34267 ft | 434 kts | 321° |
| 2026-05-04 07:23 | 48.07425 | 45.06408 | 34431 ft | 435 kts | 321° |
| 2026-05-04 07:24 | 48.09936 | 45.03897 | 34596 ft | 435 kts | 321° |
| 2026-05-04 07:24 | 48.12450 | 45.01377 | 34771 ft | 435 kts | 321° |
| 2026-05-04 07:24 | 48.14962 | 44.98854 | 34956 ft | 435 kts | 321° |
| 2026-05-04 07:24 | 48.17471 | 44.96327 | 35064 ft | 434 kts | 321° |
| 2026-05-04 07:26 | 48.37412 | 44.76148 | 35070 ft | 431 kts | 321° |
| 2026-05-04 07:27 | 48.42380 | 44.71103 | 35078 ft | 431 kts | 321° |
| 2026-05-04 07:27 | 48.47341 | 44.66031 | 35083 ft | 431 kts | 320° |
| 2026-05-04 07:28 | 48.52295 | 44.60952 | 35080 ft | 431 kts | 320° |
| 2026-05-04 07:28 | 48.57251 | 44.55863 | 35082 ft | 432 kts | 321° |
| 2026-05-04 07:29 | 48.62218 | 44.50755 | 35082 ft | 432 kts | 321° |
| 2026-05-04 07:29 | 48.67187 | 44.45623 | 35083 ft | 432 kts | 321° |
| 2026-05-04 07:30 | 48.72125 | 44.40525 | 35084 ft | 433 kts | 321° |
| 2026-05-04 07:30 | 48.77118 | 44.35417 | 35097 ft | 436 kts | 325° |
| 2026-05-04 07:31 | 48.82734 | 44.31729 | 35085 ft | 443 kts | 335° |
| 2026-05-04 07:33 | 49.05841 | 44.18609 | 35093 ft | 442 kts | 335° |
| 2026-05-04 07:33 | 49.11575 | 44.15352 | 35089 ft | 442 kts | 335° |
| 2026-05-04 07:34 | 49.17342 | 44.12063 | 35092 ft | 442 kts | 335° |
| 2026-05-04 07:34 | 49.23109 | 44.08753 | 35104 ft | 443 kts | 335° |
| 2026-05-04 07:35 | 49.28883 | 44.05423 | 35096 ft | 444 kts | 335° |
| 2026-05-04 07:35 | 49.34661 | 44.02087 | 35096 ft | 444 kts | 335° |
| 2026-05-04 07:36 | 49.40444 | 43.98745 | 35092 ft | 444 kts | 335° |
| 2026-05-04 07:38 | 49.62702 | 43.82988 | 35100 ft | 440 kts | 328° |
| 2026-05-04 07:38 | 49.68093 | 43.78468 | 35101 ft | 442 kts | 328° |
| 2026-05-04 07:39 | 49.73494 | 43.73933 | 35105 ft | 441 kts | 329° |
| 2026-05-04 07:39 | 49.78885 | 43.69388 | 35106 ft | 441 kts | 328° |
| 2026-05-04 07:40 | 49.84273 | 43.64820 | 35099 ft | 441 kts | 328° |
| 2026-05-04 07:40 | 49.89622 | 43.60276 | 35106 ft | 441 kts | 328° |
| 2026-05-04 07:41 | 49.95008 | 43.55701 | 35103 ft | 441 kts | 329° |
| 2026-05-04 07:41 | 50.00372 | 43.51122 | 35104 ft | 440 kts | 329° |
| 2026-05-04 07:42 | 50.05738 | 43.46542 | 35102 ft | 440 kts | 329° |
| 2026-05-04 07:42 | 50.11104 | 43.41950 | 35105 ft | 440 kts | 329° |
| 2026-05-04 07:43 | 50.16462 | 43.37345 | 35113 ft | 439 kts | 330° |
| 2026-05-04 07:43 | 50.21802 | 43.32741 | 35111 ft | 438 kts | 330° |
| 2026-05-04 07:44 | 50.27133 | 43.28130 | 35106 ft | 438 kts | 330° |
| 2026-05-04 07:44 | 50.32467 | 43.23512 | 35109 ft | 438 kts | 330° |
| 2026-05-04 07:45 | 50.37763 | 43.18913 | 35107 ft | 438 kts | 330° |
| 2026-05-04 07:45 | 50.43084 | 43.14280 | 35114 ft | 437 kts | 330° |
| 2026-05-04 07:46 | 50.48401 | 43.09650 | 35110 ft | 437 kts | 330° |
| 2026-05-04 07:46 | 50.53716 | 43.05007 | 35114 ft | 437 kts | 330° |
| 2026-05-04 07:47 | 50.59027 | 43.00349 | 35110 ft | 437 kts | 330° |
| 2026-05-04 07:49 | 50.81161 | 42.84605 | 35111 ft | 439 kts | 340° |
| 2026-05-04 07:49 | 50.86925 | 42.81367 | 35111 ft | 440 kts | 340° |
| 2026-05-04 07:50 | 50.92700 | 42.78118 | 35106 ft | 440 kts | 340° |
| 2026-05-04 07:50 | 50.98481 | 42.74887 | 35108 ft | 441 kts | 340° |
| 2026-05-04 07:51 | 51.04263 | 42.71648 | 35104 ft | 440 kts | 340° |
| 2026-05-04 07:51 | 51.10038 | 42.68392 | 35113 ft | 440 kts | 340° |
| 2026-05-04 07:52 | 51.15776 | 42.65132 | 35106 ft | 441 kts | 340° |
| 2026-05-04 07:52 | 51.21561 | 42.61843 | 35100 ft | 441 kts | 340° |
| 2026-05-04 07:54 | 51.44701 | 42.48634 | 35087 ft | 442 kts | 340° |
| 2026-05-04 07:55 | 51.50482 | 42.45315 | 35085 ft | 441 kts | 340° |
| 2026-05-04 07:55 | 51.56223 | 42.42001 | 35093 ft | 441 kts | 340° |
| 2026-05-04 07:56 | 51.61993 | 42.38662 | 35092 ft | 441 kts | 340° |
| 2026-05-04 07:56 | 51.67766 | 42.35316 | 35084 ft | 441 kts | 340° |
| 2026-05-04 07:57 | 51.73545 | 42.31968 | 35082 ft | 441 kts | 340° |
| 2026-05-04 07:57 | 51.79317 | 42.28608 | 35082 ft | 441 kts | 340° |
| 2026-05-04 07:58 | 51.85085 | 42.25229 | 35264 ft | 441 kts | 340° |
| 2026-05-04 07:58 | 51.90857 | 42.21849 | 35447 ft | 441 kts | 340° |
| 2026-05-04 07:59 | 51.96625 | 42.18462 | 35659 ft | 440 kts | 340° |
| 2026-05-04 07:59 | 52.02344 | 42.15100 | 35851 ft | 440 kts | 340° |
| 2026-05-04 08:00 | 52.05223 | 42.13406 | 35992 ft | 439 kts | 340° |
| 2026-05-04 08:00 | 52.08099 | 42.11705 | 36072 ft | 440 kts | 340° |
| 2026-05-04 08:02 | 52.31259 | 41.98823 | 36068 ft | 440 kts | 341° |
| 2026-05-04 08:02 | 52.37133 | 41.96063 | 36075 ft | 440 kts | 351° |
| 2026-05-04 08:03 | 52.43248 | 41.95831 | 35800 ft | 442 kts | 1° |
| 2026-05-04 08:03 | 52.46322 | 41.96006 | 35345 ft | 441 kts | 1° |
| 2026-05-04 08:03 | 52.49384 | 41.96174 | 35065 ft | 440 kts | 1° |
| 2026-05-04 08:04 | 52.55512 | 41.96513 | 35061 ft | 441 kts | 1° |
| 2026-05-04 08:04 | 52.61609 | 41.96838 | 35057 ft | 441 kts | 1° |
| 2026-05-04 08:05 | 52.64675 | 41.96984 | 35230 ft | 438 kts | 358° |
| 2026-05-04 08:05 | 52.67695 | 41.96551 | 35552 ft | 433 kts | 348° |
| 2026-05-04 08:05 | 52.70597 | 41.95312 | 35887 ft | 429 kts | 339° |
| 2026-05-04 08:05 | 52.73329 | 41.93339 | 36025 ft | 429 kts | 330° |
| 2026-05-04 08:06 | 52.78183 | 41.87486 | 36052 ft | 436 kts | 321° |
| 2026-05-04 08:06 | 52.82889 | 41.81140 | 36046 ft | 437 kts | 321° |
| 2026-05-04 08:08 | 53.01665 | 41.55665 | 36032 ft | 436 kts | 321° |
| 2026-05-04 08:11 | 53.22914 | 41.27345 | 36014 ft | 435 kts | 332° |
| 2026-05-04 08:11 | 53.31486 | 41.22305 | 36016 ft | 437 kts | 342° |
| 2026-05-04 08:12 | 53.37300 | 41.19355 | 36008 ft | 436 kts | 342° |
| 2026-05-04 08:12 | 53.43113 | 41.16387 | 36011 ft | 436 kts | 342° |
| 2026-05-04 08:13 | 53.48881 | 41.13437 | 36005 ft | 436 kts | 342° |
| 2026-05-04 08:13 | 53.54685 | 41.10440 | 36003 ft | 436 kts | 342° |
| 2026-05-04 08:14 | 53.60483 | 41.07440 | 35997 ft | 436 kts | 342° |
| 2026-05-04 08:16 | 53.76364 | 40.79497 | 35989 ft | 435 kts | 294° |
| 2026-05-04 08:16 | 53.78771 | 40.70113 | 35988 ft | 435 kts | 294° |
| 2026-05-04 08:17 | 53.81151 | 40.60773 | 35983 ft | 435 kts | 294° |
| 2026-05-04 08:17 | 53.83546 | 40.51366 | 35983 ft | 435 kts | 294° |
| 2026-05-04 08:19 | 53.92666 | 40.15308 | 35975 ft | 434 kts | 294° |
| 2026-05-04 08:20 | 53.95042 | 40.05889 | 35969 ft | 434 kts | 294° |
| 2026-05-04 08:20 | 53.97400 | 39.96451 | 35973 ft | 434 kts | 294° |
| 2026-05-04 08:21 | 53.99740 | 39.87013 | 35967 ft | 433 kts | 294° |
| 2026-05-04 08:21 | 54.02057 | 39.77654 | 35966 ft | 432 kts | 294° |
| 2026-05-04 08:22 | 54.04384 | 39.68233 | 35966 ft | 432 kts | 294° |
| 2026-05-04 08:24 | 54.12473 | 39.35093 | 32379 ft | 435 kts | 294° |
| 2026-05-04 08:24 | 54.13632 | 39.30310 | 31749 ft | 437 kts | 294° |
| 2026-05-04 08:24 | 54.14795 | 39.25501 | 31136 ft | 440 kts | 294° |
| 2026-05-04 08:24 | 54.15962 | 39.20666 | 30532 ft | 442 kts | 294° |
| 2026-05-04 08:25 | 54.17134 | 39.15797 | 29917 ft | 444 kts | 294° |
| 2026-05-04 08:25 | 54.18309 | 39.10904 | 29239 ft | 446 kts | 294° |
| 2026-05-04 08:25 | 54.19486 | 39.05985 | 28554 ft | 446 kts | 294° |
| 2026-05-04 08:25 | 54.20644 | 39.01132 | 28061 ft | 436 kts | 294° |
| 2026-05-04 08:26 | 54.21792 | 38.96446 | 27917 ft | 418 kts | 298° |
| 2026-05-04 08:27 | 54.36806 | 38.78355 | 26283 ft | 377 kts | 333° |
| 2026-05-04 08:28 | 54.39148 | 38.76336 | 26037 ft | 376 kts | 333° |
| 2026-05-04 08:28 | 54.41483 | 38.74327 | 25930 ft | 375 kts | 333° |
| 2026-05-04 08:28 | 54.43820 | 38.72320 | 25952 ft | 376 kts | 333° |
| 2026-05-04 08:28 | 54.46156 | 38.70312 | 25949 ft | 376 kts | 333° |
| 2026-05-04 08:29 | 54.48493 | 38.68300 | 25945 ft | 376 kts | 333° |
| 2026-05-04 08:29 | 54.50831 | 38.66288 | 25947 ft | 375 kts | 333° |
| 2026-05-04 08:29 | 54.53163 | 38.64275 | 25948 ft | 375 kts | 333° |
| 2026-05-04 08:31 | 54.69467 | 38.50129 | 25944 ft | 376 kts | 333° |
| 2026-05-04 08:33 | 54.85539 | 38.35524 | 25002 ft | 369 kts | 321° |
| 2026-05-04 08:33 | 54.87404 | 38.32465 | 24819 ft | 369 kts | 315° |
| 2026-05-04 08:35 | 54.99844 | 38.10257 | 23193 ft | 362 kts | 314° |
| 2026-05-04 08:35 | 55.01591 | 38.07113 | 22827 ft | 360 kts | 314° |
| 2026-05-04 08:35 | 55.03325 | 38.03987 | 22455 ft | 358 kts | 314° |
| 2026-05-04 08:35 | 55.05047 | 38.00884 | 22087 ft | 356 kts | 314° |
| 2026-05-04 08:37 | 55.15173 | 37.82511 | 20945 ft | 349 kts | 314° |
| 2026-05-04 08:37 | 55.16909 | 37.79540 | 20944 ft | 349 kts | 320° |
| 2026-05-04 08:37 | 55.18866 | 37.77028 | 20945 ft | 349 kts | 324° |
| 2026-05-04 08:38 | 55.20840 | 37.74541 | 20810 ft | 349 kts | 323° |
| 2026-05-04 08:38 | 55.22800 | 37.72044 | 20607 ft | 348 kts | 323° |
| 2026-05-04 08:38 | 55.24652 | 37.69356 | 20400 ft | 344 kts | 311° |
| 2026-05-04 08:40 | 55.24688 | 37.42504 | 19945 ft | 327 kts | 261° |
| 2026-05-04 08:40 | 55.24391 | 37.38581 | 19938 ft | 323 kts | 274° |
| 2026-05-04 08:40 | 55.24819 | 37.34762 | 19944 ft | 319 kts | 294° |
| 2026-05-04 08:41 | 55.25964 | 37.31465 | 19946 ft | 317 kts | 313° |
| 2026-05-04 08:41 | 55.27682 | 37.29062 | 19942 ft | 318 kts | 332° |
| 2026-05-04 08:41 | 55.29782 | 37.27839 | 19944 ft | 322 kts | 351° |
| 2026-05-04 08:41 | 55.32034 | 37.27931 | 19744 ft | 328 kts | 9° |
| 2026-05-04 08:42 | 55.34258 | 37.28813 | 19406 ft | 327 kts | 10° |
| 2026-05-04 08:42 | 55.36465 | 37.29730 | 19066 ft | 325 kts | 10° |
| 2026-05-04 08:42 | 55.38661 | 37.30648 | 18732 ft | 324 kts | 10° |
| 2026-05-04 08:42 | 55.40819 | 37.31553 | 18407 ft | 322 kts | 10° |
| 2026-05-04 08:43 | 55.42996 | 37.32463 | 18058 ft | 321 kts | 10° |
| 2026-05-04 08:43 | 55.45166 | 37.33366 | 17681 ft | 319 kts | 10° |
| 2026-05-04 08:43 | 55.47320 | 37.34256 | 17309 ft | 317 kts | 10° |
| 2026-05-04 08:43 | 55.49466 | 37.35140 | 16946 ft | 315 kts | 9° |
| 2026-05-04 08:44 | 55.51616 | 37.35730 | 16582 ft | 310 kts | 359° |
| 2026-05-04 08:44 | 55.53755 | 37.35724 | 16223 ft | 307 kts | 356° |
| 2026-05-04 08:46 | 55.68486 | 37.35581 | 13833 ft | 298 kts | 356° |
| 2026-05-04 08:46 | 55.70557 | 37.35562 | 13471 ft | 297 kts | 356° |
| 2026-05-04 08:46 | 55.72618 | 37.35543 | 13097 ft | 296 kts | 356° |
| 2026-05-04 08:46 | 55.74503 | 37.35450 | 12816 ft | 292 kts | 353° |
| 2026-05-04 08:47 | 55.76525 | 37.35246 | 12557 ft | 290 kts | 352° |
| 2026-05-04 08:47 | 55.78530 | 37.35004 | 12278 ft | 288 kts | 352° |
| 2026-05-04 08:47 | 55.80528 | 37.34754 | 12020 ft | 287 kts | 352° |
| 2026-05-04 08:47 | 55.82518 | 37.34511 | 11908 ft | 286 kts | 352° |
| 2026-05-04 08:48 | 55.84503 | 37.34281 | 11916 ft | 287 kts | 352° |
| 2026-05-04 08:48 | 55.86505 | 37.34051 | 11667 ft | 288 kts | 352° |
| 2026-05-04 08:48 | 55.88495 | 37.33825 | 11332 ft | 286 kts | 352° |
| 2026-05-04 08:48 | 55.90475 | 37.33607 | 11017 ft | 284 kts | 352° |
| 2026-05-04 08:49 | 55.92443 | 37.33393 | 10696 ft | 283 kts | 352° |
| 2026-05-04 08:50 | 56.03034 | 37.26998 | 9532 ft | 270 kts | 324° |
| 2026-05-04 08:50 | 56.04614 | 37.25197 | 9347 ft | 269 kts | 325° |
| 2026-05-04 08:51 | 56.06192 | 37.23401 | 9163 ft | 269 kts | 325° |
| 2026-05-04 08:51 | 56.07768 | 37.21607 | 8980 ft | 268 kts | 325° |
| 2026-05-04 08:51 | 56.09330 | 37.19799 | 8801 ft | 267 kts | 321° |
| 2026-05-04 08:51 | 56.10757 | 37.17696 | 8617 ft | 266 kts | 322° |
| 2026-05-04 08:52 | 56.12501 | 37.16594 | 8432 ft | 274 kts | 354° |
| 2026-05-04 08:52 | 56.14388 | 37.17286 | 8256 ft | 285 kts | 22° |
| 2026-05-04 08:52 | 56.15944 | 37.19542 | 8076 ft | 296 kts | 50° |
| 2026-05-04 08:52 | 56.16755 | 37.22940 | 7900 ft | 302 kts | 81° |
| 2026-05-04 08:53 | 56.16632 | 37.26699 | 7741 ft | 304 kts | 99° |
| 2026-05-04 08:54 | 56.18493 | 37.50301 | 6769 ft | 264 kts | 71° |
| 2026-05-04 08:55 | 56.18963 | 37.53461 | 6535 ft | 262 kts | 72° |
| 2026-05-04 08:55 | 56.19157 | 37.56713 | 6287 ft | 265 kts | 94° |
| 2026-05-04 08:55 | 56.18698 | 37.59903 | 6030 ft | 265 kts | 116° |
| 2026-05-04 08:55 | 56.17654 | 37.62593 | 5778 ft | 263 kts | 137° |
| 2026-05-04 08:57 | 56.08538 | 37.76967 | 4090 ft | 227 kts | 183° |
| 2026-05-04 09:01 | 55.99079 | 37.54580 | 1791 ft | 158 kts | 256° |
| 2026-05-04 09:01 | 55.98801 | 37.52704 | 1591 ft | 155 kts | 255° |
| 2026-05-04 09:01 | 55.98530 | 37.50871 | 1374 ft | 149 kts | 256° |
| 2026-05-04 09:01 | 55.98274 | 37.49142 | 1201 ft | 141 kts | 254° |
| 2026-05-04 09:02 | 55.98028 | 37.47481 | 1033 ft | 137 kts | 257° |
| 2026-05-04 09:02 | 55.97790 | 37.45839 | 815 ft | 136 kts | 255° |
| 2026-05-04 09:02 | 55.97552 | 37.44213 | 666 ft | 135 kts | 255° |
| 2026-05-04 09:02 | 55.97328 | 37.42725 | 644 ft | 105 kts | 255° |
| 2026-05-04 09:03 | 55.97184 | 37.41767 | 645 ft | 55 kts | 255° |
| 2026-05-04 09:03 | 55.97147 | 37.41375 | 643 ft | 17 kts | 299° |
| 2026-05-04 09:03 | 55.97244 | 37.41309 | 643 ft | 7 kts | 342° |
| 2026-05-04 09:03 | 55.97248 | 37.41307 | 643 ft | 0 kts | 342° |
| 2026-05-04 09:04 | 55.97249 | 37.41306 | 643 ft | 1 kts | 342° |
| 2026-05-04 09:04 | 55.97259 | 37.41301 | 639 ft | 3 kts | 344° |
| 2026-05-04 09:04 | 55.97342 | 37.41262 | 640 ft | 22 kts | 346° |
| 2026-05-04 09:05 | 55.97492 | 37.41192 | 641 ft | 17 kts | 352° |
| 2026-05-04 09:05 | 55.97557 | 37.41335 | 640 ft | 15 kts | 74° |
| 2026-05-04 09:05 | 55.97583 | 37.41507 | 639 ft | 14 kts | 75° |
| 2026-05-04 09:05 | 55.97646 | 37.41597 | 644 ft | 12 kts | 348° |
| 2026-05-04 09:06 | 55.97736 | 37.41553 | 639 ft | 17 kts | 345° |
| 2026-05-04 09:07 | 55.98070 | 37.41538 | 642 ft | 0 kts | 75° |